Time;durP1;ratioP1;P1;durP2;ratioP2;P2;SDS_P1;SDS_P2;PMS_P1;PMS_P2;Temp;Humidity;BMP_temperature;BMP_pressure;BME280_temperature;BME280_humidity;BME280_pressure;Samples;Min_cycle;Max_cycle;Signal;HPM_P1;HPM_P2
2021/01/09 00:00:13;;;;;;;2.50;2.13;;;;;;;12.66;48.43;100717.53;4881481;28;120317;-61
2021/01/09 00:02:40;;;;;;;2.60;2.40;;;;;;;12.65;48.38;100722.09;4885310;28;105945;-61
2021/01/09 00:05:07;;;;;;;2.60;2.22;;;;;;;12.67;48.43;100727.25;4903169;28;111793;-61
2021/01/09 00:07:34;;;;;;;2.80;2.47;;;;;;;12.67;48.31;100730.75;4902766;28;107734;-62
2021/01/09 00:10:00;;;;;;;3.25;2.50;;;;;;;12.67;48.33;100736.16;4903927;28;98003;-61
2021/01/09 00:12:27;;;;;;;2.58;2.28;;;;;;;12.64;48.53;100731.31;4906881;28;97848;-62
2021/01/09 00:14:53;;;;;;;3.30;2.40;;;;;;;12.62;48.48;100732.69;4922578;28;114591;-62
2021/01/09 00:17:19;;;;;;;3.25;2.92;;;;;;;12.62;48.54;100732.69;4921888;28;128269;-61
2021/01/09 00:19:45;;;;;;;3.17;2.42;;;;;;;12.63;48.47;100737.81;4922090;28;97931;-62
2021/01/09 00:22:11;;;;;;;2.58;2.28;;;;;;;12.62;49.08;100741.59;4921186;28;117841;-62
2021/01/09 00:24:38;;;;;;;2.95;2.58;;;;;;;12.60;48.34;100740.25;4921330;28;118123;-62
2021/01/09 00:27:11;;;;;;;3.45;2.42;;;;;;;12.59;48.35;100741.34;4923286;28;98496;-63
2021/01/09 00:29:44;;;;;;;2.50;2.30;;;;;;;12.58;48.63;100737.81;4921720;28;98421;-62
2021/01/09 00:32:11;;;;;;;3.08;2.78;;;;;;;12.59;48.54;100742.16;4923063;28;97908;-62
2021/01/09 00:34:37;;;;;;;3.20;2.90;;;;;;;12.55;48.67;100743.78;4922208;28;98875;-61
2021/01/09 00:37:03;;;;;;;2.70;2.50;;;;;;;12.54;48.71;100739.47;4922022;28;115119;-61
2021/01/09 00:39:29;;;;;;;2.90;2.65;;;;;;;12.54;48.43;100744.88;4922079;28;117156;-61
2021/01/09 00:41:59;;;;;;;2.85;2.65;;;;;;;12.53;48.63;100746.72;4920680;28;99104;-61
2021/01/09 00:44:27;;;;;;;3.10;2.80;;;;;;;12.55;48.63;100748.38;4892805;28;98342;-61
2021/01/09 00:46:55;;;;;;;3.15;2.75;;;;;;;12.50;48.73;100752.72;4901755;28;98291;-61
2021/01/09 00:49:21;;;;;;;3.65;2.88;;;;;;;12.53;48.76;100749.44;4902040;28;98596;-61
2021/01/09 00:51:48;;;;;;;2.88;2.63;;;;;;;12.55;48.71;100748.38;4901190;28;97938;-62
2021/01/09 00:54:14;;;;;;;2.85;2.65;;;;;;;12.53;48.70;100754.03;4919316;28;98415;-62
2021/01/09 00:56:40;;;;;;;3.10;2.80;;;;;;;12.52;48.77;100755.94;4903907;28;98673;-62
2021/01/09 00:59:06;;;;;;;3.05;2.75;;;;;;;12.53;48.79;100756.75;4919308;28;127248;-62
2021/01/09 01:01:33;;;;;;;3.53;2.90;;;;;;;12.50;48.78;100752.72;4922757;28;98031;-62
2021/01/09 01:03:59;;;;;;;3.05;2.70;;;;;;;12.50;48.97;100754.59;4920234;28;98713;-62
2021/01/09 01:06:26;;;;;;;3.22;2.92;;;;;;;12.49;48.63;100751.06;4903872;28;98535;-62
2021/01/09 01:08:52;;;;;;;3.10;2.80;;;;;;;12.48;48.60;100754.06;4903493;28;104406;-62
2021/01/09 01:11:27;;;;;;;2.92;2.63;;;;;;;12.47;49.03;100758.66;4903715;28;102256;-62
2021/01/09 01:13:53;;;;;;;3.00;2.72;;;;;;;12.47;48.74;100758.66;4921072;28;120545;-62
2021/01/09 01:16:20;;;;;;;3.67;3.35;;;;;;;12.49;49.08;100761.06;4921933;28;113613;-62
2021/01/09 01:18:46;;;;;;;3.20;2.90;;;;;;;12.49;49.02;100769.19;4920403;28;115629;-61
2021/01/09 01:21:12;;;;;;;3.22;2.72;;;;;;;12.47;48.88;100765.97;4911869;28;98418;-62
2021/01/09 01:23:38;;;;;;;3.40;3.00;;;;;;;12.44;48.93;100774.63;4892977;28;128251;-62
2021/01/09 01:26:04;;;;;;;3.13;2.83;;;;;;;12.44;49.02;100777.31;4901237;28;111996;-61
2021/01/09 01:28:31;;;;;;;3.05;2.70;;;;;;;12.44;48.89;100778.13;4899882;28;98702;-62
2021/01/09 01:30:57;;;;;;;3.22;2.90;;;;;;;12.43;49.17;100776.50;4902056;28;97833;-62
2021/01/09 01:33:23;;;;;;;3.20;2.90;;;;;;;12.42;48.87;100774.09;4892985;28;128675;-62
2021/01/09 01:35:49;;;;;;;2.92;2.63;;;;;;;12.44;48.82;100770.00;4900887;28;119090;-62
2021/01/09 01:38:15;;;;;;;3.58;3.00;;;;;;;12.43;49.03;100770.28;4884033;28;110558;-62
2021/01/09 01:40:41;;;;;;;3.00;2.70;;;;;;;12.41;48.95;100765.13;4883554;28;118367;-62
2021/01/09 01:43:11;;;;;;;3.17;2.88;;;;;;;12.41;48.92;100775.16;4893858;28;111948;-62
2021/01/09 01:45:42;;;;;;;3.03;2.70;;;;;;;12.42;48.69;100772.19;4901585;28;98084;-62
2021/01/09 01:48:09;;;;;;;3.42;2.80;;;;;;;12.41;48.87;100762.44;4914802;28;115874;-62
2021/01/09 01:50:38;;;;;;;3.47;2.90;;;;;;;12.40;48.92;100773.53;4902333;28;97780;-62
2021/01/09 01:53:06;;;;;;;3.15;2.85;;;;;;;12.42;48.83;100774.09;4884803;28;111249;-62
2021/01/09 01:55:32;;;;;;;3.00;2.70;;;;;;;12.39;49.04;100771.91;4899803;28;117674;-62
2021/01/09 01:57:58;;;;;;;3.30;3.00;;;;;;;12.39;48.67;100775.44;4894483;28;99101;-61
2021/01/09 02:00:24;;;;;;;3.20;2.90;;;;;;;12.40;48.72;100774.34;4900213;28;117914;-62
2021/01/09 02:02:54;;;;;;;3.08;2.47;;;;;;;12.37;48.74;100779.47;4895459;28;98581;-62
2021/01/09 02:05:37;;;;;;;3.25;2.75;;;;;;;12.37;48.95;100782.19;4896947;28;121731;-62
2021/01/09 02:08:03;;;;;;;;;;;;;;;12.31;48.70;100778.69;4900075;28;114784;-62
2021/01/09 02:10:29;;;;;;;2.40;2.20;;;;;;;12.33;48.79;100775.69;4883327;28;109099;-62
2021/01/09 02:13:14;;;;;;;2.63;2.42;;;;;;;12.34;48.77;100772.75;4882695;28;127718;-63
2021/01/09 02:15:40;;;;;;;2.95;2.67;;;;;;;12.37;48.66;100771.38;4886230;28;114111;-62
2021/01/09 02:18:06;;;;;;;3.10;2.80;;;;;;;12.35;48.80;100771.66;4883641;28;98842;-62
2021/01/09 02:20:33;;;;;;;3.47;2.85;;;;;;;12.35;48.78;100771.66;4900967;28;116442;-62
2021/01/09 02:22:59;;;;;;;3.13;2.83;;;;;;;12.36;48.72;100778.66;4882346;28;120102;-62
2021/01/09 02:25:25;;;;;;;3.42;2.88;;;;;;;12.36;48.57;100773.25;4886582;28;128892;-62
2021/01/09 02:27:51;;;;;;;3.60;2.90;;;;;;;12.37;48.36;100780.28;4919866;28;127883;-62
2021/01/09 02:30:21;;;;;;;3.40;2.85;;;;;;;12.34;48.77;100780.00;4920130;28;117913;-62
2021/01/09 02:33:06;;;;;;;3.00;2.70;;;;;;;12.31;48.54;100778.69;4918669;28;107237;-62
2021/01/09 02:35:34;;;;;;;3.08;2.78;;;;;;;12.33;48.48;100781.91;4903323;28;98382;-62
2021/01/09 02:38:03;;;;;;;2.95;2.63;;;;;;;12.34;48.51;100778.16;4920500;28;109561;-62
2021/01/09 02:40:29;;;;;;;3.05;2.75;;;;;;;12.34;48.58;100778.16;4921736;28;117976;-62
2021/01/09 02:42:55;;;;;;;3.70;2.50;;;;;;;12.33;48.49;100779.22;4921078;28;128567;-63
2021/01/09 02:45:21;;;;;;;3.25;2.95;;;;;;;12.34;48.52;100780.00;4923400;28;127976;-62
2021/01/09 02:47:47;;;;;;;3.20;2.90;;;;;;;12.34;48.38;100786.25;4922829;28;127818;-62
2021/01/09 02:50:13;;;;;;;3.00;2.70;;;;;;;12.34;48.27;100782.72;4923145;28;117684;-61
2021/01/09 02:52:40;;;;;;;3.60;2.90;;;;;;;12.35;48.41;100787.88;4924530;28;98394;-61
2021/01/09 02:55:07;;;;;;;2.95;2.67;;;;;;;12.33;48.49;100781.91;4924415;28;98237;-61
2021/01/09 02:57:33;;;;;;;3.08;2.78;;;;;;;12.32;48.51;100785.69;4921708;28;101899;-62
2021/01/09 02:59:59;;;;;;;3.38;3.08;;;;;;;12.31;48.58;100780.56;4905444;28;97979;-61
2021/01/09 03:02:25;;;;;;;3.40;3.05;;;;;;;12.29;48.46;100791.66;4923286;28;98950;-61
2021/01/09 03:04:51;;;;;;;3.15;2.85;;;;;;;12.29;48.56;100791.66;4923336;28;128597;-61
2021/01/09 03:07:17;;;;;;;3.35;3.05;;;;;;;12.27;48.79;100794.63;4922641;28;128280;-61
2021/01/09 03:09:43;;;;;;;3.55;3.25;;;;;;;12.28;48.72;100795.44;4922955;28;117931;-61
2021/01/09 03:12:09;;;;;;;3.70;3.30;;;;;;;12.27;48.75;100791.94;4908819;28;123853;-61
2021/01/09 03:14:35;;;;;;;7.25;3.15;;;;;;;12.28;48.64;100800.84;4903772;28;103329;-61
2021/01/09 03:17:01;;;;;;;3.67;2.92;;;;;;;12.26;48.66;100797.59;4903519;28;126086;-61
2021/01/09 03:19:27;;;;;;;3.80;3.28;;;;;;;12.26;48.58;100803.00;4905448;28;97959;-62
2021/01/09 03:21:54;;;;;;;3.75;3.20;;;;;;;12.25;48.66;100806.78;4902683;28;128929;-61
2021/01/09 03:24:21;;;;;;;3.88;3.40;;;;;;;12.24;48.79;100805.16;4903260;28;98443;-61
2021/01/09 03:26:47;;;;;;;3.72;3.20;;;;;;;12.25;48.51;100799.47;4911649;28;116404;-61
2021/01/09 03:29:13;;;;;;;3.97;3.40;;;;;;;12.24;48.82;100803.28;4921311;28;98071;-61
2021/01/09 03:31:39;;;;;;;3.85;3.45;;;;;;;12.23;48.79;100801.66;4921817;28;128046;-61
2021/01/09 03:34:05;;;;;;;3.45;3.15;;;;;;;12.25;48.80;100807.59;4922465;28;126745;-61
2021/01/09 03:36:31;;;;;;;3.75;3.40;;;;;;;12.23;48.67;100811.66;4921629;28;98922;-61
2021/01/09 03:38:57;;;;;;;4.28;3.88;;;;;;;12.24;48.61;100811.38;4858215;28;100841;-61
2021/01/09 03:41:23;;;;;;;4.93;3.90;;;;;;;12.22;48.61;100816.25;4884295;28;126508;-61
2021/01/09 03:43:49;;;;;;;4.35;3.90;;;;;;;12.21;48.26;100819.22;4900893;28;129812;-61
2021/01/09 03:46:15;;;;;;;4.05;3.65;;;;;;;12.22;48.61;100818.13;4903134;28;127292;-61
2021/01/09 03:48:41;;;;;;;4.95;4.20;;;;;;;12.24;48.32;100807.88;4902536;28;117553;-61
2021/01/09 03:51:07;;;;;;;4.28;3.60;;;;;;;12.22;48.60;100807.31;4901293;28;128514;-61
2021/01/09 03:53:33;;;;;;;5.20;3.90;;;;;;;12.23;48.38;100806.25;4901573;28;128259;-61
2021/01/09 03:55:59;;;;;;;4.28;3.47;;;;;;;12.26;48.14;100820.03;4902891;28;128726;-61
2021/01/09 03:58:25;;;;;;;4.57;3.83;;;;;;;12.24;48.46;100813.28;4904069;28;97993;-61
2021/01/09 04:00:51;;;;;;;4.28;3.78;;;;;;;12.22;48.33;100810.84;4884155;28;128652;-61
2021/01/09 04:03:17;;;;;;;5.03;3.97;;;;;;;12.22;48.33;100813.56;4902633;28;115659;-61
2021/01/09 04:05:43;;;;;;;5.10;4.18;;;;;;;12.22;48.31;100815.41;4908315;28;119398;-61
2021/01/09 04:08:09;;;;;;;4.68;4.18;;;;;;;12.21;48.50;100816.50;4922252;28;117782;-61
2021/01/09 04:10:35;;;;;;;4.82;3.97;;;;;;;12.20;48.10;100813.00;4921803;28;123185;-62
2021/01/09 04:13:01;;;;;;;5.00;4.38;;;;;;;12.19;48.34;100824.91;4921794;28;127961;-61
2021/01/09 04:15:28;;;;;;;5.28;4.50;;;;;;;12.18;48.26;100819.75;4923048;28;115910;-61
2021/01/09 04:17:54;;;;;;;5.25;4.75;;;;;;;12.16;48.58;100821.91;4922468;28;109721;-61
2021/01/09 04:20:20;;;;;;;5.05;4.55;;;;;;;12.16;48.43;100824.63;4920170;28;121559;-61
2021/01/09 04:22:46;;;;;;;6.32;4.72;;;;;;;12.16;48.59;100819.22;4921453;28;127486;-61
2021/01/09 04:25:12;;;;;;;5.03;4.47;;;;;;;12.18;48.41;100825.16;4922229;28;115578;-61
2021/01/09 04:27:38;;;;;;;5.70;4.57;;;;;;;12.14;48.32;100822.16;4920086;28;118763;-62
2021/01/09 04:30:05;;;;;;;5.53;4.95;;;;;;;12.13;48.42;100825.97;4921774;28;128318;-61
2021/01/09 04:32:32;;;;;;;6.15;4.47;;;;;;;12.14;48.30;100821.38;4919089;28;112086;-61
2021/01/09 04:34:58;;;;;;;5.57;4.75;;;;;;;12.14;48.40;100830.28;4903028;28;97862;-61
2021/01/09 04:37:25;;;;;;;5.70;4.75;;;;;;;12.09;48.81;100826.78;4899932;28;97766;-61
2021/01/09 04:39:51;;;;;;;7.07;5.60;;;;;;;12.08;48.57;100825.16;4898076;28;99040;-61
2021/01/09 04:42:17;;;;;;;5.93;5.32;;;;;;;12.04;48.49;100825.69;4898795;28;129016;-61
2021/01/09 04:44:44;;;;;;;6.30;5.25;;;;;;;12.03;48.58;100823.25;4896150;28;127294;-61
2021/01/09 04:47:10;;;;;;;6.40;5.38;;;;;;;12.01;48.38;100830.81;4883381;28;100999;-61
2021/01/09 04:49:36;;;;;;;6.03;5.10;;;;;;;12.02;48.49;100832.44;4874952;28;126982;-61
2021/01/09 04:52:03;;;;;;;6.80;5.10;;;;;;;11.99;48.51;100824.88;4880922;28;98621;-61
2021/01/09 04:54:29;;;;;;;6.47;5.30;;;;;;;11.99;48.50;100830.28;4901902;28;116344;-62
2021/01/09 04:56:56;;;;;;;6.03;5.10;;;;;;;11.96;48.69;100826.22;4901031;28;103627;-61
2021/01/09 04:59:23;;;;;;;6.03;5.15;;;;;;;11.96;48.65;100830.81;4902299;28;98609;-61
2021/01/09 05:01:50;;;;;;;6.07;5.47;;;;;;;11.95;48.60;100832.72;4908550;28;99088;-61
2021/01/09 05:04:17;;;;;;;7.00;5.70;;;;;;;11.94;48.53;100836.47;4921601;28;98028;-61
2021/01/09 05:06:44;;;;;;;6.60;5.38;;;;;;;11.94;48.69;100830.25;4920007;28;97963;-61
2021/01/09 05:09:11;;;;;;;7.05;5.93;;;;;;;11.93;48.22;100840.25;4921302;28;118988;-61
2021/01/09 05:11:40;;;;;;;6.70;5.75;;;;;;;11.92;48.51;100841.34;4921268;28;120036;-61
2021/01/09 05:14:07;;;;;;;6.40;5.50;;;;;;;11.92;48.82;100843.22;4921331;28;116363;-61
2021/01/09 05:16:37;;;;;;;6.05;5.30;;;;;;;11.91;48.42;100845.13;4921736;28;97864;-61
2021/01/09 05:19:04;;;;;;;6.97;5.50;;;;;;;11.88;48.31;100845.66;4916068;28;101558;-61
2021/01/09 05:21:32;;;;;;;6.55;5.30;;;;;;;11.93;48.76;100844.84;4902403;28;98263;-61
2021/01/09 05:24:01;;;;;;;7.60;5.63;;;;;;;11.90;48.73;100848.88;4884086;28;113380;-61
2021/01/09 05:26:27;;;;;;;6.28;5.43;;;;;;;11.90;48.37;100848.06;4895953;28;98080;-61
2021/01/09 05:29:01;;;;;;;7.05;5.45;;;;;;;11.87;48.32;100846.75;4882004;28;98564;-61
2021/01/09 05:31:28;;;;;;;6.82;5.43;;;;;;;11.90;48.39;100853.47;4891973;28;98596;-61
2021/01/09 05:33:54;;;;;;;6.85;5.70;;;;;;;11.90;48.46;100848.06;4894609;28;97924;-61
2021/01/09 05:36:21;;;;;;;6.65;5.95;;;;;;;11.89;48.61;100849.97;4883328;28;98219;-61
2021/01/09 05:38:48;;;;;;;7.07;5.65;;;;;;;11.88;48.48;100858.34;4894309;28;98876;-61
2021/01/09 05:41:20;;;;;;;6.35;5.20;;;;;;;11.89;48.86;100859.97;4901328;28;115861;-61
2021/01/09 05:44:05;;;;;;;6.50;5.30;;;;;;;11.85;48.50;100854.28;4894537;28;98283;-62
2021/01/09 05:46:40;;;;;;;6.60;5.30;;;;;;;11.85;48.82;100862.38;4901903;28;97990;-61
2021/01/09 05:49:06;;;;;;;6.68;5.40;;;;;;;11.87;48.70;100864.81;4883754;28;98276;-61
2021/01/09 05:51:38;;;;;;;6.85;5.40;;;;;;;11.85;48.31;100867.78;4884372;28;98344;-61
2021/01/09 05:54:04;;;;;;;6.30;5.40;;;;;;;11.87;48.74;100875.63;4893667;28;97905;-61
2021/01/09 05:56:30;;;;;;;6.07;5.40;;;;;;;11.87;48.21;100871.06;4901695;28;117976;-61
2021/01/09 05:58:57;;;;;;;6.63;5.00;;;;;;;11.90;48.94;100877.78;4892679;28;128994;-61
2021/01/09 06:01:28;;;;;;;5.88;5.18;;;;;;;11.85;48.91;100873.19;4903858;28;99028;-61
2021/01/09 06:04:08;;;;;;;6.82;5.47;;;;;;;11.83;48.44;100872.66;4920400;28;119754;-61
2021/01/09 06:06:58;;;;;;;6.47;5.28;;;;;;;11.84;48.95;100871.56;4902882;28;97985;-61
2021/01/09 06:09:26;;;;;;;5.88;5.28;;;;;;;11.86;48.98;100871.28;4902861;28;98425;-61
2021/01/09 06:11:56;;;;;;;5.90;5.00;;;;;;;11.85;48.87;100875.88;4901908;28;115380;-61
2021/01/09 06:14:26;;;;;;;5.63;4.85;;;;;;;11.85;48.73;100875.88;4923000;28;127153;-61
2021/01/09 06:16:52;;;;;;;6.15;5.20;;;;;;;11.86;48.48;100882.91;4905709;28;97825;-62
2021/01/09 06:19:23;;;;;;;5.32;4.82;;;;;;;11.86;48.42;100874.00;4889874;28;103693;-62
2021/01/09 06:21:49;;;;;;;5.90;5.22;;;;;;;11.86;48.47;100880.22;4906397;28;98449;-62
2021/01/09 06:24:15;;;;;;;6.05;5.32;;;;;;;11.85;48.66;100878.59;4903136;28;124802;-63
2021/01/09 06:26:41;;;;;;;5.90;5.18;;;;;;;11.86;48.87;100887.50;4889375;28;116778;-62
2021/01/09 06:29:23;;;;;;;5.78;5.18;;;;;;;11.84;48.56;100882.38;4906306;28;98480;-62
2021/01/09 06:32:03;;;;;;;5.95;5.30;;;;;;;11.85;48.53;100888.59;4923506;28;99322;-62
2021/01/09 06:34:30;;;;;;;6.35;5.40;;;;;;;11.85;48.69;100889.41;4924494;28;98305;-62
2021/01/09 06:37:06;;;;;;;5.78;5.07;;;;;;;11.86;48.79;100890.19;4906890;28;97821;-62
2021/01/09 06:39:38;;;;;;;5.60;4.78;;;;;;;11.83;48.45;100893.41;4922289;28;126083;-61
2021/01/09 06:42:06;;;;;;;;;;;;;;;11.80;49.03;100897.47;4923517;28;126841;-61
2021/01/09 06:44:32;;;;;;;6.03;4.55;;;;;;;11.86;48.90;100893.72;4925110;28;98151;-61
2021/01/09 06:46:58;;;;;;;5.80;4.70;;;;;;;11.92;48.53;100903.47;4921443;28;116668;-61
2021/01/09 06:49:28;;;;;;;5.50;4.78;;;;;;;11.96;48.60;100909.16;4922188;28;98443;-60
2021/01/09 06:52:05;;;;;;;6.38;5.10;;;;;;;11.98;48.52;100907.00;4906273;28;98185;-61
2021/01/09 06:54:37;;;;;;;5.68;4.70;;;;;;;11.97;48.32;100908.88;4899046;28;98147;-61
2021/01/09 06:57:16;;;;;;;4.53;3.95;;;;;;;12.04;48.33;100909.44;4904354;28;98172;-61
2021/01/09 06:59:49;;;;;;;5.25;4.43;;;;;;;12.01;48.60;100909.97;4901695;28;98927;-60
2021/01/09 07:02:25;;;;;;;5.72;4.90;;;;;;;12.05;48.43;100921.06;4901312;28;98437;-61
2021/01/09 07:05:01;;;;;;;5.75;5.15;;;;;;;12.08;48.25;100922.44;4902079;28;98258;-61
2021/01/09 07:07:54;;;;;;;6.00;4.90;;;;;;;12.08;48.51;100922.44;4897094;28;98178;-61
2021/01/09 07:10:24;;;;;;;5.17;4.67;;;;;;;12.07;47.98;100921.63;4880882;28;98150;-60
2021/01/09 07:12:54;;;;;;;5.82;4.68;;;;;;;12.08;48.36;100925.94;4894732;28;98985;-61
2021/01/09 07:15:21;;;;;;;5.28;4.63;;;;;;;12.11;48.25;100930.00;4901253;28;97953;-61
2021/01/09 07:17:51;;;;;;;5.10;4.50;;;;;;;12.10;48.06;100931.06;4858482;28;98088;-61
2021/01/09 07:20:20;;;;;;;5.07;4.55;;;;;;;12.12;48.40;100932.44;4881523;28;98749;-61
2021/01/09 07:22:49;;;;;;;5.10;4.50;;;;;;;12.13;48.22;100933.25;4847647;28;98504;-62
2021/01/09 07:25:19;;;;;;;4.78;4.38;;;;;;;12.14;48.13;100935.66;4881704;28;98305;-61
2021/01/09 07:27:46;;;;;;;4.80;3.95;;;;;;;12.15;48.21;100939.22;4864656;28;98002;-62
2021/01/09 07:30:16;;;;;;;5.03;4.15;;;;;;;12.15;48.67;100941.91;4863453;28;120482;-62
2021/01/09 07:32:51;;;;;;;4.38;3.97;;;;;;;12.12;48.44;100939.72;4864461;28;98355;-61
2021/01/09 07:35:27;;;;;;;4.32;3.90;;;;;;;12.15;48.62;100948.13;4881629;28;98318;-61
2021/01/09 07:38:02;;;;;;;4.28;3.63;;;;;;;12.14;48.29;100941.06;4882545;28;97985;-62
2021/01/09 07:40:54;;;;;;;4.43;3.63;;;;;;;12.15;48.50;100952.72;4880995;28;116608;-61
2021/01/09 07:43:47;;;;;;;4.68;3.53;;;;;;;12.14;48.70;100957.28;4866201;28;98549;-61
2021/01/09 07:46:27;;;;;;;4.13;3.45;;;;;;;12.14;48.89;100951.88;4863074;28;98033;-62
2021/01/09 07:48:57;;;;;;;4.45;3.88;;;;;;;12.19;48.51;100956.53;4854172;28;97777;-61
2021/01/09 07:51:50;;;;;;;4.03;3.58;;;;;;;12.19;48.72;100956.53;4862475;28;105867;-62
2021/01/09 07:54:44;;;;;;;4.13;3.63;;;;;;;12.21;48.76;100963.25;4868746;28;97994;-61
2021/01/09 07:57:20;;;;;;;4.10;3.70;;;;;;;12.23;49.31;100971.13;4882087;28;98492;-62
2021/01/09 07:59:55;;;;;;;11.18;4.00;;;;;;;12.23;49.41;100976.53;4900148;28;97723;-62
2021/01/09 08:02:34;;;;;;;6.90;4.03;;;;;;;12.22;49.63;100974.88;4901157;28;98013;-61
2021/01/09 08:05:06;;;;;;;6.13;3.97;;;;;;;12.21;49.71;100974.06;4901216;28;106957;-61
2021/01/09 08:07:36;;;;;;;4.57;3.70;;;;;;;12.27;49.91;100980.31;4900840;28;99001;-61
2021/01/09 08:10:33;;;;;;;5.38;3.78;;;;;;;12.29;50.09;100983.56;4883858;28;97870;-62
2021/01/09 08:13:00;;;;;;;5.03;3.88;;;;;;;12.35;50.06;100987.09;4887161;28;98323;-62
2021/01/09 08:15:27;;;;;;;4.05;3.53;;;;;;;12.34;50.11;100990.88;4901266;28;98701;-62
2021/01/09 08:17:53;;;;;;;6.05;4.30;;;;;;;12.36;50.46;100986.00;4900871;28;98290;-62
2021/01/09 08:20:20;;;;;;;4.75;3.95;;;;;;;12.38;50.35;101000.06;4900934;28;97795;-61
2021/01/09 08:22:59;;;;;;;5.63;3.80;;;;;;;12.36;50.84;100992.22;4900080;28;97960;-61
2021/01/09 08:25:28;;;;;;;4.68;4.10;;;;;;;12.37;51.02;100995.75;4900520;28;99210;-62
2021/01/09 08:27:56;;;;;;;4.80;3.80;;;;;;;12.38;51.01;101000.91;4899856;28;98068;-61
2021/01/09 08:30:24;;;;;;;3.83;3.20;;;;;;;12.41;51.11;101002.25;4901193;28;97987;-62
2021/01/09 08:32:59;;;;;;;4.10;3.17;;;;;;;12.42;51.42;100999.28;4900348;28;99502;-62
2021/01/09 08:35:25;;;;;;;4.10;3.45;;;;;;;12.43;51.32;101003.59;4897596;28;107061;-62
2021/01/09 08:37:51;;;;;;;3.88;3.47;;;;;;;12.44;51.61;101007.13;4898790;28;127722;-62
2021/01/09 08:40:18;;;;;;;4.03;3.63;;;;;;;12.45;51.58;101009.53;4897305;28;117318;-62
2021/01/09 08:43:14;;;;;;;3.75;3.38;;;;;;;12.46;51.76;101013.09;4900145;28;98579;-62
2021/01/09 08:45:48;;;;;;;3.78;3.20;;;;;;;12.53;51.59;101021.72;4881480;28;119629;-62
2021/01/09 08:48:37;;;;;;;4.40;3.60;;;;;;;12.54;51.65;101017.97;4900018;28;98024;-61
2021/01/09 08:51:13;;;;;;;5.15;3.17;;;;;;;12.57;51.73;101017.41;4899261;28;119045;-62
2021/01/09 08:53:55;;;;;;;3.90;3.33;;;;;;;12.58;51.93;101016.38;4881765;28;101380;-61
2021/01/09 08:56:23;;;;;;;4.20;3.53;;;;;;;12.57;51.89;101020.13;4898933;28;98543;-61
2021/01/09 08:58:49;;;;;;;4.15;3.30;;;;;;;12.61;52.03;101015.00;4881199;28;120519;-61
2021/01/09 09:01:20;;;;;;;5.05;4.53;;;;;;;12.65;51.80;101025.00;4898146;28;100463;-62
2021/01/09 09:03:50;;;;;;;4.82;4.40;;;;;;;12.67;51.97;101022.06;4899985;28;115198;-62
2021/01/09 09:06:18;;;;;;;4.90;4.40;;;;;;;12.69;51.85;101026.13;4898039;28;98447;-62
2021/01/09 09:08:44;;;;;;;4.50;4.10;;;;;;;12.72;51.77;101028.28;4896563;28;113850;-62
2021/01/09 09:11:10;;;;;;;4.60;4.20;;;;;;;12.78;51.80;101024.50;4881781;28;98159;-62
2021/01/09 09:13:36;;;;;;;4.80;4.32;;;;;;;12.84;51.68;101028.03;4897686;28;106799;-62
2021/01/09 09:16:20;;;;;;;4.57;4.18;;;;;;;12.87;51.92;101035.59;4900144;28;98777;-62
2021/01/09 09:18:46;;;;;;;4.70;4.20;;;;;;;12.93;51.63;101031.84;4881630;28;99117;-62
2021/01/09 09:21:12;;;;;;;5.10;4.32;;;;;;;13.00;51.80;101037.78;4899635;28;97798;-62
2021/01/09 09:23:38;;;;;;;4.82;4.40;;;;;;;13.02;51.99;101041.03;4898673;28;99083;-62
2021/01/09 09:26:09;;;;;;;4.95;4.45;;;;;;;13.02;51.93;101045.63;4899889;28;98297;-62
2021/01/09 09:28:49;;;;;;;5.97;5.07;;;;;;;13.00;52.11;101039.66;4897211;28;97922;-62
2021/01/09 09:31:33;;;;;;;6.53;5.90;;;;;;;12.99;52.15;101041.56;4899539;28;97741;-61
2021/01/09 09:34:05;;;;;;;6.00;5.43;;;;;;;12.98;52.55;101044.56;4899784;28;98459;-62
2021/01/09 09:36:35;;;;;;;6.53;5.88;;;;;;;12.97;52.44;101042.94;4898974;28;102281;-62
2021/01/09 09:39:14;;;;;;;6.35;5.72;;;;;;;12.99;52.63;101046.97;4898098;28;98453;-62
2021/01/09 09:42:06;;;;;;;6.95;5.80;;;;;;;13.01;52.67;101044.03;4899316;28;97944;-61
2021/01/09 09:44:40;;;;;;;7.22;5.70;;;;;;;12.98;52.63;101037.25;4895283;28;128318;-62
2021/01/09 09:47:09;;;;;;;7.18;5.50;;;;;;;13.00;52.82;101034.25;4896289;28;98804;-62
2021/01/09 09:49:36;;;;;;;5.82;5.22;;;;;;;13.00;53.02;101035.06;4881886;28;98688;-61
2021/01/09 09:52:16;;;;;;;6.28;5.55;;;;;;;12.98;52.85;101033.72;4898908;28;97883;-61
2021/01/09 09:54:42;;;;;;;5.55;5.00;;;;;;;12.93;52.94;101039.94;4901319;28;98533;-62
2021/01/09 09:57:22;;;;;;;5.97;5.38;;;;;;;12.90;53.14;101036.97;4893122;28;127492;-63
2021/01/09 10:00:08;;;;;;;5.72;5.18;;;;;;;12.90;53.11;101037.78;4898742;28;98565;-62
2021/01/09 10:02:34;;;;;;;5.35;4.82;;;;;;;12.89;53.03;101035.31;4883168;28;97996;-61
2021/01/09 10:05:13;;;;;;;5.57;4.80;;;;;;;12.87;53.31;101034.78;4895472;28;119437;-62
2021/01/09 10:07:39;;;;;;;5.68;5.07;;;;;;;12.87;53.29;101032.09;4901840;28;98868;-62
2021/01/09 10:10:19;;;;;;;4.65;4.18;;;;;;;12.85;53.32;101034.25;4897714;28;126569;-62
2021/01/09 10:12:57;;;;;;;5.20;4.70;;;;;;;12.86;53.12;101038.59;4881116;28;98291;-62
2021/01/09 10:15:24;;;;;;;4.65;4.25;;;;;;;12.89;53.12;101033.47;4880612;28;128267;-61
2021/01/09 10:17:57;;;;;;;4.88;4.38;;;;;;;12.90;53.07;101037.78;4898233;28;113388;-62
2021/01/09 10:20:23;;;;;;;4.95;4.30;;;;;;;12.93;53.05;101039.13;4898303;28;98074;-62
2021/01/09 10:22:49;;;;;;;4.68;4.25;;;;;;;12.98;52.70;101036.44;4898486;28;97859;-62
2021/01/09 10:25:15;;;;;;;4.60;4.20;;;;;;;13.03;52.94;101039.13;4897829;28;122321;-62
2021/01/09 10:27:41;;;;;;;4.60;4.20;;;;;;;13.05;52.77;101036.16;4897993;28;108707;-62
2021/01/09 10:30:08;;;;;;;4.70;3.85;;;;;;;13.03;52.83;101042.66;4864550;28;123856;-62
2021/01/09 10:32:34;;;;;;;4.18;3.80;;;;;;;13.04;52.61;101040.75;4905599;28;106972;-62
2021/01/09 10:35:00;;;;;;;4.07;3.67;;;;;;;13.02;52.96;101037.53;4918578;28;127461;-61
2021/01/09 10:37:26;;;;;;;4.38;3.97;;;;;;;13.01;53.13;101039.41;4917045;28;126552;-62
2021/01/09 10:39:52;;;;;;;4.38;3.97;;;;;;;13.03;53.19;101034.53;4918179;28;98592;-61
2021/01/09 10:42:18;;;;;;;4.25;3.55;;;;;;;13.05;53.29;101033.44;4915235;28;117107;-62
2021/01/09 10:44:44;;;;;;;4.57;4.00;;;;;;;13.08;52.96;101031.00;4899194;28;127515;-62
2021/01/09 10:47:10;;;;;;;4.10;3.70;;;;;;;13.08;52.95;101030.22;4914064;28;127636;-61
2021/01/09 10:49:36;;;;;;;3.72;3.42;;;;;;;13.11;53.09;101032.38;4899016;28;126883;-62
2021/01/09 10:52:03;;;;;;;3.92;3.53;;;;;;;13.11;52.97;101030.47;4915588;28;118245;-62
2021/01/09 10:54:29;;;;;;;3.72;3.38;;;;;;;13.15;52.96;101039.69;4900655;28;115720;-62
2021/01/09 10:56:55;;;;;;;3.75;3.45;;;;;;;13.20;52.94;101038.88;4897853;28;127224;-62
2021/01/09 10:59:21;;;;;;;3.28;2.97;;;;;;;13.19;53.28;101029.13;4896673;28;126738;-62
2021/01/09 11:01:47;;;;;;;3.95;3.50;;;;;;;13.17;52.87;101031.31;4901191;28;116465;-62
2021/01/09 11:04:13;;;;;;;3.67;3.38;;;;;;;13.20;53.06;101025.34;4920194;28;127140;-62
2021/01/09 11:06:39;;;;;;;4.03;3.35;;;;;;;13.25;52.90;101025.38;4909013;28;128046;-62
2021/01/09 11:09:05;;;;;;;4.03;3.63;;;;;;;13.27;52.76;101021.31;4889505;28;126854;-62
2021/01/09 11:11:31;;;;;;;3.83;3.42;;;;;;;13.34;52.56;101034.56;4885936;28;98262;-62
2021/01/09 11:13:57;;;;;;;3.67;3.38;;;;;;;13.43;52.72;101038.34;4882576;28;126083;-61
2021/01/09 11:16:24;;;;;;;3.50;3.17;;;;;;;13.47;52.82;101038.63;4920499;28;112159;-61
2021/01/09 11:18:50;;;;;;;3.28;2.97;;;;;;;13.48;52.68;101037.56;4902438;28;98008;-61
2021/01/09 11:21:19;;;;;;;3.50;3.20;;;;;;;13.56;52.55;101036.16;4909843;28;103040;-61
2021/01/09 11:23:46;;;;;;;3.75;3.45;;;;;;;13.63;52.88;101036.69;4876339;28;98514;-62
2021/01/09 11:26:23;;;;;;;4.10;3.33;;;;;;;13.63;52.79;101032.09;4914211;28;98022;-62
2021/01/09 11:28:50;;;;;;;3.40;3.10;;;;;;;13.64;52.71;101036.44;4914804;28;99023;-61
2021/01/09 11:31:17;;;;;;;3.20;2.90;;;;;;;13.64;52.90;101046.47;4913079;28;98120;-61